Flugplatz Nordenbeck (EDGN)

Hier findest Du alle Informationen zum Flugplatz Nordenbeck (EDGN).

Informationen für Piloten zum Flugplatz Nordenbeck

Hier findest Du alle relevanten Informationen, die Du als Pilot benötigst, um Nordenbeck anzufliegen.

Flugplatz: Nordenbeck ICAO-Code: EDGN
Frequenz Turm: 122,500 Mhz GAFOR Gebiet: 43
Frequenz Ground: 122,500 Mhz Mogas: nein
Platzrunde: S 2500 ft Landegebühr: -
Platzhöhe: 1.453 ft Sunrise: 03:07 Uhr UTC
Pisten: 08/26 - 600 m x 25 m, GRAS Sunset: 19:46 Uhr UTC

Flugwetter am Flugplatz Nordenbeck

Die METAR Information stammen aus EDVK (43.01 km entfernt).

METAR Code:
2024/06/17 09:50
EDVK 170950Z 19008KT 150V250 9999 VCSH SCT034 20/12 Q1012

Flugschulen am Flugplatz Nordenbeck

Am Flugplatz Nordenbeck gibt es leider keine Flugschule.

Benachbarte Flugplätze und Flugschulen

Es gibt 16 weitere Flugplätze in einem Umkreis von 50 km um den Flugplatz Nordenbeck.

Jetzt anmelden

Passwort vergessen

Umfrage Archiv

Wie häufig haltet Ihr die Halbkreisflugregel ein?

Eher häufig!
36 %
Immer!
30.7 %
Hin und wieder!
16.7 %
Nie!
9.5 %
Eher selten!
7.2 %
Stimmen: 264 | Diskussion
Anzeige: Roland Aircraft
Statistik Alle Mitglieder

Aktuell sind 42 Besucher online, davon 4 Mitglieder und 38 Gäste.


Mitglieder online:
carstendirks  JoergMe  Heli  b3nn0 

Anzeige: EasyVFR